»·PEaware :: N733AM L88-KSBP

N733AM :: L88-KSBP

FLIGHT INFORMATION

Flight Status: Arrived
Operator: Privately registered:
United States
More flights under this callsign
Pilot: Armen M. (22776)
Aircraft: CESSNA 172 SKYHAWK
(C172)
More flights by this aircraft type
Origin: L88 New Cuyama
United States
Destination: KSBP San Luis Co Regl
United States
More flights between these airports :: More routes between these airports
Route:
File this flight plan on PilotEdge
Remarks: CAT 2
Altitude:
(Current/Filed)
6,500ft
Speed:
(Current/Filed)
110kts
Departed: 28-Jan-19 10:29 AM
Arrived: 28-Jan-19 11:03 AM
Distance/Time
Traveled:
50nm/0:34
Distance/Time
To Go:
Arrived

Flight Plot

Page will automatically refresh every two minutes.


Map Options




Map Legend


Flown Route
Filed Route
Departure Airport
Arrival Airport
Navaid (VOR, NDB)
Fix

Horizontal Profiles

Position Reports

Time Latitude Longitude Heading Altitude Ground
Speed
28-Jan-19 10:14 34.942855 -119.690286 204 2207ft 0kts
28-Jan-19 10:15 34.942855 -119.690286 204 2207ft 0kts
28-Jan-19 10:16 34.942855 -119.690286 204 2207ft 0kts
28-Jan-19 10:17 34.942855 -119.690286 204 2207ft 0kts
28-Jan-19 10:18 34.942855 -119.690286 204 2207ft 0kts
28-Jan-19 10:19 34.942855 -119.690286 204 2207ft 0kts
28-Jan-19 10:20 34.942855 -119.690286 204 2207ft 0kts
28-Jan-19 10:21 34.942815 -119.690436 283 2207ft 3kts
28-Jan-19 10:22 34.942902 -119.691090 206 2207ft 0kts
28-Jan-19 10:23 34.942902 -119.691090 206 2207ft 0kts
28-Jan-19 10:24 34.942254 -119.691193 121 2207ft 10kts
28-Jan-19 10:25 34.939729 -119.685016 115 2207ft 12kts
28-Jan-19 10:26 34.938092 -119.681041 120 2207ft 2kts
28-Jan-19 10:27 34.937757 -119.680249 293 2207ft 0kts
28-Jan-19 10:28 34.942764 -119.691176 304 2524ft 80kts
28-Jan-19 10:29 34.954746 -119.712698 278 3483ft 84kts
28-Jan-19 10:30 34.956626 -119.739932 276 4421ft 80kts
28-Jan-19 10:31 34.958399 -119.766259 289 5279ft 81kts
28-Jan-19 10:32 34.965213 -119.792126 289 6045ft 86kts
28-Jan-19 10:33 34.972607 -119.817867 285 6498ft 105kts
28-Jan-19 10:34 34.980878 -119.848434 288 6512ft 111kts
28-Jan-19 10:35 34.990432 -119.879948 295 6533ft 112kts
28-Jan-19 10:36 35.004204 -119.909252 302 6513ft 112kts
28-Jan-19 10:37 35.018171 -119.938488 300 6464ft 111kts
28-Jan-19 10:38 35.029737 -119.969156 291 6448ft 111kts
28-Jan-19 10:39 35.039419 -120.001333 287 6451ft 111kts
28-Jan-19 10:40 35.049785 -120.033750 291 6454ft 111kts
28-Jan-19 10:41 35.060481 -120.065887 289 6457ft 111kts
28-Jan-19 10:42 35.069827 -120.098831 290 6462ft 111kts
28-Jan-19 10:43 35.078713 -120.131711 286 6466ft 111kts
28-Jan-19 10:44 35.087519 -120.164388 290 6470ft 111kts
28-Jan-19 10:45 35.098149 -120.196297 291 6476ft 111kts
28-Jan-19 10:46 35.106417 -120.225557 287 6480ft 111kts
28-Jan-19 10:47 35.115438 -120.256181 292 6484ft 111kts
28-Jan-19 10:48 35.124699 -120.286530 287 6490ft 111kts
28-Jan-19 10:49 35.132656 -120.317587 287 6391ft 115kts
28-Jan-19 10:50 35.140589 -120.349603 289 5804ft 114kts
28-Jan-19 10:51 35.149959 -120.379886 292 5240ft 110kts
28-Jan-19 10:52 35.159295 -120.409316 291 4659ft 111kts
28-Jan-19 10:53 35.168919 -120.438468 292 4127ft 109kts
28-Jan-19 10:54 35.178152 -120.467474 292 3591ft 108kts
28-Jan-19 10:55 35.187527 -120.496331 290 3104ft 107kts
28-Jan-19 10:56 35.196264 -120.524770 292 2627ft 106kts
28-Jan-19 10:57 35.204966 -120.552683 289 2171ft 106kts
28-Jan-19 10:58 35.208741 -120.581073 280 1647ft 91kts
28-Jan-19 10:59 35.215219 -120.601841 301 1106ft 81kts
28-Jan-19 11:00 35.224638 -120.618761 303 622ft 71kts
28-Jan-19 11:01 35.233341 -120.633993 303 248ft 54kts
28-Jan-19 11:02 35.237240 -120.639913 359 215ft 5kts
28-Jan-19 11:03 35.237611 -120.639797 49 215ft 3kts
28-Jan-19 11:04 35.237955 -120.638527 263 215ft 4kts
28-Jan-19 11:05 35.237856 -120.638646 97 215ft 0kts

Navigation Log

Ident Type
Flight plan parsing failed, navigation log unavailable